sensor_id;sensor_type;location;lat;lon;timestamp;temperature;humidity
48860;DHT22;34679;51.436;-2.518;2022-08-21T00:01:46;15.70;99.90
48860;DHT22;34679;51.436;-2.518;2022-08-21T00:04:12;15.60;99.90
48860;DHT22;34679;51.436;-2.518;2022-08-21T00:06:37;15.60;99.90
48860;DHT22;34679;51.436;-2.518;2022-08-21T00:09:05;15.60;99.90
48860;DHT22;34679;51.436;-2.518;2022-08-21T00:11:33;15.60;99.90
48860;DHT22;34679;51.436;-2.518;2022-08-21T00:13:58;15.60;99.90
48860;DHT22;34679;51.436;-2.518;2022-08-21T00:16:24;15.60;99.90
48860;DHT22;34679;51.436;-2.518;2022-08-21T00:18:50;15.60;99.90
48860;DHT22;34679;51.436;-2.518;2022-08-21T00:21:16;15.60;99.90
48860;DHT22;34679;51.436;-2.518;2022-08-21T00:23:42;15.60;99.90
48860;DHT22;34679;51.436;-2.518;2022-08-21T00:26:08;15.60;99.90
48860;DHT22;34679;51.436;-2.518;2022-08-21T00:28:34;15.60;99.90
48860;DHT22;34679;51.436;-2.518;2022-08-21T00:31:00;15.50;99.90
48860;DHT22;34679;51.436;-2.518;2022-08-21T00:33:29;15.50;99.90
48860;DHT22;34679;51.436;-2.518;2022-08-21T00:35:55;15.50;99.90
48860;DHT22;34679;51.436;-2.518;2022-08-21T00:38:21;15.40;99.90
48860;DHT22;34679;51.436;-2.518;2022-08-21T00:40:50;15.50;99.90
48860;DHT22;34679;51.436;-2.518;2022-08-21T00:43:20;15.40;99.90
48860;DHT22;34679;51.436;-2.518;2022-08-21T00:45:46;15.40;99.90
48860;DHT22;34679;51.436;-2.518;2022-08-21T00:48:12;15.40;99.90
48860;DHT22;34679;51.436;-2.518;2022-08-21T00:50:43;15.40;99.90
48860;DHT22;34679;51.436;-2.518;2022-08-21T00:53:10;15.40;99.90
48860;DHT22;34679;51.436;-2.518;2022-08-21T00:55:36;15.40;99.90
48860;DHT22;34679;51.436;-2.518;2022-08-21T00:58:04;15.40;99.90
48860;DHT22;34679;51.436;-2.518;2022-08-21T01:00:34;15.30;99.90
48860;DHT22;34679;51.436;-2.518;2022-08-21T01:03:02;15.40;99.90
48860;DHT22;34679;51.436;-2.518;2022-08-21T01:05:30;15.40;99.90
48860;DHT22;34679;51.436;-2.518;2022-08-21T01:07:55;15.30;99.90
48860;DHT22;34679;51.436;-2.518;2022-08-21T01:10:24;15.30;99.90
48860;DHT22;34679;51.436;-2.518;2022-08-21T01:12:52;15.20;99.90
48860;DHT22;34679;51.436;-2.518;2022-08-21T01:15:22;15.20;99.90
48860;DHT22;34679;51.436;-2.518;2022-08-21T01:17:50;15.20;99.90
48860;DHT22;34679;51.436;-2.518;2022-08-21T01:20:16;15.20;99.90
48860;DHT22;34679;51.436;-2.518;2022-08-21T01:22:42;15.20;99.90
48860;DHT22;34679;51.436;-2.518;2022-08-21T01:25:09;15.20;99.90
48860;DHT22;34679;51.436;-2.518;2022-08-21T01:27:36;15.20;99.90
48860;DHT22;34679;51.436;-2.518;2022-08-21T01:30:14;15.20;99.90
48860;DHT22;34679;51.436;-2.518;2022-08-21T01:32:41;15.20;99.90
48860;DHT22;34679;51.436;-2.518;2022-08-21T01:35:08;15.10;99.90
48860;DHT22;34679;51.436;-2.518;2022-08-21T01:37:34;15.10;99.90
48860;DHT22;34679;51.436;-2.518;2022-08-21T01:40:00;15.10;99.90
48860;DHT22;34679;51.436;-2.518;2022-08-21T01:42:26;15.10;99.90
48860;DHT22;34679;51.436;-2.518;2022-08-21T01:44:51;15.00;99.90
48860;DHT22;34679;51.436;-2.518;2022-08-21T01:47:18;15.00;99.90
48860;DHT22;34679;51.436;-2.518;2022-08-21T01:49:44;15.00;99.90
48860;DHT22;34679;51.436;-2.518;2022-08-21T01:52:10;15.00;99.90
48860;DHT22;34679;51.436;-2.518;2022-08-21T01:54:37;15.00;99.90
48860;DHT22;34679;51.436;-2.518;2022-08-21T01:57:04;15.00;99.90
48860;DHT22;34679;51.436;-2.518;2022-08-21T01:59:30;14.90;99.90
48860;DHT22;34679;51.436;-2.518;2022-08-21T02:01:56;14.90;99.90
48860;DHT22;34679;51.436;-2.518;2022-08-21T02:04:22;14.80;99.90
48860;DHT22;34679;51.436;-2.518;2022-08-21T02:06:48;14.80;99.90
48860;DHT22;34679;51.436;-2.518;2022-08-21T02:09:14;14.70;99.90
48860;DHT22;34679;51.436;-2.518;2022-08-21T02:11:40;14.70;99.90
48860;DHT22;34679;51.436;-2.518;2022-08-21T02:14:11;14.70;99.90
48860;DHT22;34679;51.436;-2.518;2022-08-21T02:16:38;14.70;99.90
48860;DHT22;34679;51.436;-2.518;2022-08-21T02:19:03;14.60;99.90
48860;DHT22;34679;51.436;-2.518;2022-08-21T02:21:29;14.60;99.90
48860;DHT22;34679;51.436;-2.518;2022-08-21T02:23:55;14.70;99.90
48860;DHT22;34679;51.436;-2.518;2022-08-21T02:26:21;14.70;99.90
48860;DHT22;34679;51.436;-2.518;2022-08-21T02:28:46;14.70;99.90
48860;DHT22;34679;51.436;-2.518;2022-08-21T02:31:13;14.80;99.90
48860;DHT22;34679;51.436;-2.518;2022-08-21T02:33:39;14.80;99.90
48860;DHT22;34679;51.436;-2.518;2022-08-21T02:36:06;14.70;99.90
48860;DHT22;34679;51.436;-2.518;2022-08-21T02:38:35;14.70;99.90
48860;DHT22;34679;51.436;-2.518;2022-08-21T02:41:06;14.60;99.90
48860;DHT22;34679;51.436;-2.518;2022-08-21T02:43:33;14.60;99.90
48860;DHT22;34679;51.436;-2.518;2022-08-21T02:45:59;14.60;99.90
48860;DHT22;34679;51.436;-2.518;2022-08-21T02:48:28;14.60;99.90
48860;DHT22;34679;51.436;-2.518;2022-08-21T02:50:57;14.60;99.90
48860;DHT22;34679;51.436;-2.518;2022-08-21T02:53:24;14.60;99.90
48860;DHT22;34679;51.436;-2.518;2022-08-21T02:55:51;14.60;99.90
48860;DHT22;34679;51.436;-2.518;2022-08-21T02:58:20;14.70;99.90
48860;DHT22;34679;51.436;-2.518;2022-08-21T03:00:46;14.70;99.90
48860;DHT22;34679;51.436;-2.518;2022-08-21T03:03:12;14.70;99.90
48860;DHT22;34679;51.436;-2.518;2022-08-21T03:05:40;14.70;99.90
48860;DHT22;34679;51.436;-2.518;2022-08-21T03:08:08;14.80;99.90
48860;DHT22;34679;51.436;-2.518;2022-08-21T03:10:38;14.80;99.90
48860;DHT22;34679;51.436;-2.518;2022-08-21T03:13:05;14.80;99.90
48860;DHT22;34679;51.436;-2.518;2022-08-21T03:15:31;14.80;99.90
48860;DHT22;34679;51.436;-2.518;2022-08-21T03:17:57;14.80;99.90
48860;DHT22;34679;51.436;-2.518;2022-08-21T03:20:26;14.70;99.90
48860;DHT22;34679;51.436;-2.518;2022-08-21T03:22:52;14.80;99.90
48860;DHT22;34679;51.436;-2.518;2022-08-21T03:25:19;14.80;99.90
48860;DHT22;34679;51.436;-2.518;2022-08-21T03:27:46;14.80;99.90
48860;DHT22;34679;51.436;-2.518;2022-08-21T03:30:14;14.70;99.90
48860;DHT22;34679;51.436;-2.518;2022-08-21T03:32:41;14.80;99.90
48860;DHT22;34679;51.436;-2.518;2022-08-21T03:35:07;14.80;99.90
48860;DHT22;34679;51.436;-2.518;2022-08-21T03:37:33;14.80;99.90
48860;DHT22;34679;51.436;-2.518;2022-08-21T03:39:59;14.90;99.90
48860;DHT22;34679;51.436;-2.518;2022-08-21T03:42:25;14.90;99.90
48860;DHT22;34679;51.436;-2.518;2022-08-21T03:44:51;14.90;99.90
48860;DHT22;34679;51.436;-2.518;2022-08-21T03:47:17;14.90;99.90
48860;DHT22;34679;51.436;-2.518;2022-08-21T03:49:42;14.90;99.90
48860;DHT22;34679;51.436;-2.518;2022-08-21T03:52:08;14.90;99.90
48860;DHT22;34679;51.436;-2.518;2022-08-21T03:54:34;14.80;99.90
48860;DHT22;34679;51.436;-2.518;2022-08-21T03:57:01;14.70;99.90
48860;DHT22;34679;51.436;-2.518;2022-08-21T03:59:27;14.80;99.90
48860;DHT22;34679;51.436;-2.518;2022-08-21T04:01:54;14.80;99.90
48860;DHT22;34679;51.436;-2.518;2022-08-21T04:04:20;14.90;99.90
48860;DHT22;34679;51.436;-2.518;2022-08-21T04:06:47;14.80;99.90
48860;DHT22;34679;51.436;-2.518;2022-08-21T04:09:12;14.80;99.90
48860;DHT22;34679;51.436;-2.518;2022-08-21T04:11:38;14.70;99.90
48860;DHT22;34679;51.436;-2.518;2022-08-21T04:14:04;14.60;99.90
48860;DHT22;34679;51.436;-2.518;2022-08-21T04:16:30;14.60;99.90
48860;DHT22;34679;51.436;-2.518;2022-08-21T04:18:56;14.60;99.90
48860;DHT22;34679;51.436;-2.518;2022-08-21T04:21:22;14.60;99.90
48860;DHT22;34679;51.436;-2.518;2022-08-21T04:23:48;14.60;99.90
48860;DHT22;34679;51.436;-2.518;2022-08-21T04:26:14;14.60;99.90
48860;DHT22;34679;51.436;-2.518;2022-08-21T04:28:40;14.60;99.90
48860;DHT22;34679;51.436;-2.518;2022-08-21T04:31:08;14.60;99.90
48860;DHT22;34679;51.436;-2.518;2022-08-21T04:33:34;14.60;99.90
48860;DHT22;34679;51.436;-2.518;2022-08-21T04:36:00;14.60;99.90
48860;DHT22;34679;51.436;-2.518;2022-08-21T04:38:25;14.60;99.90
48860;DHT22;34679;51.436;-2.518;2022-08-21T04:40:52;14.60;99.90
48860;DHT22;34679;51.436;-2.518;2022-08-21T04:43:18;14.60;99.90
48860;DHT22;34679;51.436;-2.518;2022-08-21T04:45:46;14.70;99.90
48860;DHT22;34679;51.436;-2.518;2022-08-21T04:48:15;14.60;99.90
48860;DHT22;34679;51.436;-2.518;2022-08-21T04:51:07;14.70;99.90
48860;DHT22;34679;51.436;-2.518;2022-08-21T04:53:45;14.70;99.90
48860;DHT22;34679;51.436;-2.518;2022-08-21T04:56:22;14.70;99.90
48860;DHT22;34679;51.436;-2.518;2022-08-21T04:58:51;14.70;99.90
48860;DHT22;34679;51.436;-2.518;2022-08-21T05:01:21;14.70;99.90
48860;DHT22;34679;51.436;-2.518;2022-08-21T05:03:49;14.80;99.90
48860;DHT22;34679;51.436;-2.518;2022-08-21T05:06:16;14.80;99.90
48860;DHT22;34679;51.436;-2.518;2022-08-21T05:08:43;14.90;99.90
48860;DHT22;34679;51.436;-2.518;2022-08-21T05:11:10;14.90;99.90
48860;DHT22;34679;51.436;-2.518;2022-08-21T05:13:36;15.00;99.90
48860;DHT22;34679;51.436;-2.518;2022-08-21T05:16:02;15.00;99.90
48860;DHT22;34679;51.436;-2.518;2022-08-21T05:18:28;15.00;99.90
48860;DHT22;34679;51.436;-2.518;2022-08-21T05:20:54;15.10;99.90
48860;DHT22;34679;51.436;-2.518;2022-08-21T05:23:19;15.10;99.90
48860;DHT22;34679;51.436;-2.518;2022-08-21T05:25:45;15.10;99.90
48860;DHT22;34679;51.436;-2.518;2022-08-21T05:28:11;15.10;99.90
48860;DHT22;34679;51.436;-2.518;2022-08-21T05:30:38;15.10;99.90
48860;DHT22;34679;51.436;-2.518;2022-08-21T05:33:05;15.10;99.90
48860;DHT22;34679;51.436;-2.518;2022-08-21T05:35:32;15.20;99.90
48860;DHT22;34679;51.436;-2.518;2022-08-21T05:37:59;15.20;99.90
48860;DHT22;34679;51.436;-2.518;2022-08-21T05:40:26;15.20;99.90
48860;DHT22;34679;51.436;-2.518;2022-08-21T05:42:53;15.30;99.90
48860;DHT22;34679;51.436;-2.518;2022-08-21T05:45:19;15.50;99.90
48860;DHT22;34679;51.436;-2.518;2022-08-21T05:47:46;15.70;99.90
48860;DHT22;34679;51.436;-2.518;2022-08-21T05:50:12;15.70;99.90
48860;DHT22;34679;51.436;-2.518;2022-08-21T05:52:38;15.80;99.90
48860;DHT22;34679;51.436;-2.518;2022-08-21T05:55:04;15.80;99.90
48860;DHT22;34679;51.436;-2.518;2022-08-21T05:57:30;15.70;99.90
48860;DHT22;34679;51.436;-2.518;2022-08-21T05:59:55;15.80;99.90
48860;DHT22;34679;51.436;-2.518;2022-08-21T06:02:21;15.80;99.90
48860;DHT22;34679;51.436;-2.518;2022-08-21T06:04:48;15.80;99.90
48860;DHT22;34679;51.436;-2.518;2022-08-21T06:07:14;15.90;99.90
48860;DHT22;34679;51.436;-2.518;2022-08-21T06:09:40;15.90;99.90
48860;DHT22;34679;51.436;-2.518;2022-08-21T06:12:08;15.90;99.90
48860;DHT22;34679;51.436;-2.518;2022-08-21T06:14:35;15.90;99.90
48860;DHT22;34679;51.436;-2.518;2022-08-21T06:17:03;15.90;99.90
48860;DHT22;34679;51.436;-2.518;2022-08-21T06:19:29;16.00;99.90
48860;DHT22;34679;51.436;-2.518;2022-08-21T06:21:55;16.00;99.90
48860;DHT22;34679;51.436;-2.518;2022-08-21T06:24:21;15.90;99.90
48860;DHT22;34679;51.436;-2.518;2022-08-21T06:26:46;15.90;99.90
48860;DHT22;34679;51.436;-2.518;2022-08-21T06:29:13;15.90;99.90
48860;DHT22;34679;51.436;-2.518;2022-08-21T06:31:42;15.90;99.90
48860;DHT22;34679;51.436;-2.518;2022-08-21T06:34:08;15.90;99.90
48860;DHT22;34679;51.436;-2.518;2022-08-21T06:36:33;15.80;99.90
48860;DHT22;34679;51.436;-2.518;2022-08-21T06:38:59;15.80;99.90
48860;DHT22;34679;51.436;-2.518;2022-08-21T06:41:25;15.80;99.90
48860;DHT22;34679;51.436;-2.518;2022-08-21T06:43:51;15.80;99.90
48860;DHT22;34679;51.436;-2.518;2022-08-21T06:46:17;15.90;99.90
48860;DHT22;34679;51.436;-2.518;2022-08-21T06:48:42;15.90;99.90
48860;DHT22;34679;51.436;-2.518;2022-08-21T06:51:08;16.00;99.90
48860;DHT22;34679;51.436;-2.518;2022-08-21T06:53:34;16.20;99.90
48860;DHT22;34679;51.436;-2.518;2022-08-21T06:56:00;16.30;99.90
48860;DHT22;34679;51.436;-2.518;2022-08-21T06:58:25;16.30;99.90
48860;DHT22;34679;51.436;-2.518;2022-08-21T07:00:51;16.40;99.90
48860;DHT22;34679;51.436;-2.518;2022-08-21T07:03:19;16.50;99.90
48860;DHT22;34679;51.436;-2.518;2022-08-21T07:05:45;16.60;99.90
48860;DHT22;34679;51.436;-2.518;2022-08-21T07:08:11;16.70;99.90
48860;DHT22;34679;51.436;-2.518;2022-08-21T07:10:37;16.90;99.90
48860;DHT22;34679;51.436;-2.518;2022-08-21T07:13:02;17.20;99.90
48860;DHT22;34679;51.436;-2.518;2022-08-21T07:15:29;17.40;99.90
48860;DHT22;34679;51.436;-2.518;2022-08-21T07:17:54;17.90;99.90
48860;DHT22;34679;51.436;-2.518;2022-08-21T07:20:20;18.10;99.90
48860;DHT22;34679;51.436;-2.518;2022-08-21T07:22:46;18.30;99.90
48860;DHT22;34679;51.436;-2.518;2022-08-21T07:25:12;18.50;99.90
48860;DHT22;34679;51.436;-2.518;2022-08-21T07:27:38;18.40;99.90
48860;DHT22;34679;51.436;-2.518;2022-08-21T07:30:04;18.40;99.90
48860;DHT22;34679;51.436;-2.518;2022-08-21T07:32:31;18.40;99.90
48860;DHT22;34679;51.436;-2.518;2022-08-21T07:34:56;18.30;99.90
48860;DHT22;34679;51.436;-2.518;2022-08-21T07:37:22;18.40;99.90
48860;DHT22;34679;51.436;-2.518;2022-08-21T07:39:48;18.30;99.90
48860;DHT22;34679;51.436;-2.518;2022-08-21T07:42:15;18.20;99.90
48860;DHT22;34679;51.436;-2.518;2022-08-21T07:44:41;18.20;99.90
48860;DHT22;34679;51.436;-2.518;2022-08-21T07:47:07;18.10;99.90
48860;DHT22;34679;51.436;-2.518;2022-08-21T07:49:32;18.10;99.90
48860;DHT22;34679;51.436;-2.518;2022-08-21T07:51:58;18.00;99.90
48860;DHT22;34679;51.436;-2.518;2022-08-21T07:54:24;17.90;99.90
48860;DHT22;34679;51.436;-2.518;2022-08-21T07:56:49;17.80;99.90
48860;DHT22;34679;51.436;-2.518;2022-08-21T07:59:15;17.80;99.90
48860;DHT22;34679;51.436;-2.518;2022-08-21T08:01:41;17.80;99.90
48860;DHT22;34679;51.436;-2.518;2022-08-21T08:04:06;17.80;99.90
48860;DHT22;34679;51.436;-2.518;2022-08-21T08:06:32;17.70;99.90
48860;DHT22;34679;51.436;-2.518;2022-08-21T08:08:58;17.60;99.90
48860;DHT22;34679;51.436;-2.518;2022-08-21T08:11:23;17.60;99.90
48860;DHT22;34679;51.436;-2.518;2022-08-21T08:13:51;17.50;99.90
48860;DHT22;34679;51.436;-2.518;2022-08-21T08:16:18;17.40;99.90
48860;DHT22;34679;51.436;-2.518;2022-08-21T08:18:44;17.40;99.90
48860;DHT22;34679;51.436;-2.518;2022-08-21T08:21:12;17.40;99.90
48860;DHT22;34679;51.436;-2.518;2022-08-21T08:23:38;17.40;99.90
48860;DHT22;34679;51.436;-2.518;2022-08-21T08:26:04;17.60;99.90
48860;DHT22;34679;51.436;-2.518;2022-08-21T08:28:31;17.90;99.90
48860;DHT22;34679;51.436;-2.518;2022-08-21T08:30:58;18.30;99.90
48860;DHT22;34679;51.436;-2.518;2022-08-21T08:33:24;18.70;99.90
48860;DHT22;34679;51.436;-2.518;2022-08-21T08:35:50;19.10;99.90
48860;DHT22;34679;51.436;-2.518;2022-08-21T08:38:18;19.30;99.90
48860;DHT22;34679;51.436;-2.518;2022-08-21T08:41:13;19.20;99.90
48860;DHT22;34679;51.436;-2.518;2022-08-21T08:43:42;19.10;99.90
48860;DHT22;34679;51.436;-2.518;2022-08-21T08:46:14;19.00;99.90
48860;DHT22;34679;51.436;-2.518;2022-08-21T08:51:26;19.00;99.90
48860;DHT22;34679;51.436;-2.518;2022-08-21T08:54:02;19.20;99.90
48860;DHT22;34679;51.436;-2.518;2022-08-21T08:56:33;19.70;99.90
48860;DHT22;34679;51.436;-2.518;2022-08-21T08:59:07;20.20;99.90
48860;DHT22;34679;51.436;-2.518;2022-08-21T09:01:33;20.70;99.90
48860;DHT22;34679;51.436;-2.518;2022-08-21T09:03:59;21.60;99.90
48860;DHT22;34679;51.436;-2.518;2022-08-21T09:09:29;22.80;99.90
48860;DHT22;34679;51.436;-2.518;2022-08-21T09:12:19;23.00;99.90
48860;DHT22;34679;51.436;-2.518;2022-08-21T09:25:58;23.40;99.90
48860;DHT22;34679;51.436;-2.518;2022-08-21T09:28:25;23.40;99.90
48860;DHT22;34679;51.436;-2.518;2022-08-21T09:30:55;23.40;99.90
48860;DHT22;34679;51.436;-2.518;2022-08-21T09:33:21;23.30;99.90
48860;DHT22;34679;51.436;-2.518;2022-08-21T09:35:53;23.30;99.90
48860;DHT22;34679;51.436;-2.518;2022-08-21T09:38:31;23.10;99.90
48860;DHT22;34679;51.436;-2.518;2022-08-21T09:41:03;23.00;99.90
48860;DHT22;34679;51.436;-2.518;2022-08-21T09:43:30;23.20;99.90
48860;DHT22;34679;51.436;-2.518;2022-08-21T09:46:07;23.40;99.90
48860;DHT22;34679;51.436;-2.518;2022-08-21T09:48:48;23.60;99.90
48860;DHT22;34679;51.436;-2.518;2022-08-21T09:53:47;24.10;99.90
48860;DHT22;34679;51.436;-2.518;2022-08-21T09:56:26;24.40;99.90
48860;DHT22;34679;51.436;-2.518;2022-08-21T09:59:33;24.50;99.90
48860;DHT22;34679;51.436;-2.518;2022-08-21T10:02:01;25.30;99.90
48860;DHT22;34679;51.436;-2.518;2022-08-21T10:04:31;25.70;99.60
48860;DHT22;34679;51.436;-2.518;2022-08-21T10:07:14;26.40;98.60
48860;DHT22;34679;51.436;-2.518;2022-08-21T10:09:41;26.80;98.30
48860;DHT22;34679;51.436;-2.518;2022-08-21T10:22:55;25.10;98.10
48860;DHT22;34679;51.436;-2.518;2022-08-21T10:25:33;25.10;98.20
48860;DHT22;34679;51.436;-2.518;2022-08-21T10:28:17;25.00;98.40
48860;DHT22;34679;51.436;-2.518;2022-08-21T10:38:44;24.50;99.20
48860;DHT22;34679;51.436;-2.518;2022-08-21T10:41:26;24.80;99.10
48860;DHT22;34679;51.436;-2.518;2022-08-21T10:52:22;25.30;97.60
48860;DHT22;34679;51.436;-2.518;2022-08-21T10:54:52;25.60;97.20
48860;DHT22;34679;51.436;-2.518;2022-08-21T10:57:33;25.30;96.90
48860;DHT22;34679;51.436;-2.518;2022-08-21T11:00:09;25.40;96.80
48860;DHT22;34679;51.436;-2.518;2022-08-21T11:02:50;25.10;97.10
48860;DHT22;34679;51.436;-2.518;2022-08-21T11:16:47;25.40;96.60
48860;DHT22;34679;51.436;-2.518;2022-08-21T11:25:33;24.80;97.40
48860;DHT22;34679;51.436;-2.518;2022-08-21T11:28:16;24.80;96.90
48860;DHT22;34679;51.436;-2.518;2022-08-21T11:31:11;25.10;97.20
48860;DHT22;34679;51.436;-2.518;2022-08-21T11:37:01;25.00;97.20
48860;DHT22;34679;51.436;-2.518;2022-08-21T11:50:14;24.80;97.60
48860;DHT22;34679;51.436;-2.518;2022-08-21T11:52:43;24.50;97.60
48860;DHT22;34679;51.436;-2.518;2022-08-21T11:55:30;24.50;97.50
48860;DHT22;34679;51.436;-2.518;2022-08-21T11:58:00;24.70;97.80
48860;DHT22;34679;51.436;-2.518;2022-08-21T12:00:34;24.90;97.30
48860;DHT22;34679;51.436;-2.518;2022-08-21T12:03:13;25.10;97.00
48860;DHT22;34679;51.436;-2.518;2022-08-21T12:05:43;25.30;96.60
48860;DHT22;34679;51.436;-2.518;2022-08-21T12:08:11;25.80;95.80
48860;DHT22;34679;51.436;-2.518;2022-08-21T12:10:45;26.30;95.80
48860;DHT22;34679;51.436;-2.518;2022-08-21T12:13:27;26.50;95.60
48860;DHT22;34679;51.436;-2.518;2022-08-21T12:16:14;26.80;95.50
48860;DHT22;34679;51.436;-2.518;2022-08-21T12:18:41;26.70;95.10
48860;DHT22;34679;51.436;-2.518;2022-08-21T12:21:26;26.20;95.20
48860;DHT22;34679;51.436;-2.518;2022-08-21T12:24:19;25.90;96.30
48860;DHT22;34679;51.436;-2.518;2022-08-21T12:29:36;26.50;96.20
48860;DHT22;34679;51.436;-2.518;2022-08-21T12:32:20;26.80;96.10
48860;DHT22;34679;51.436;-2.518;2022-08-21T12:34:54;26.60;95.60
48860;DHT22;34679;51.436;-2.518;2022-08-21T12:39:57;26.00;96.50
48860;DHT22;34679;51.436;-2.518;2022-08-21T12:42:36;25.80;96.30
48860;DHT22;34679;51.436;-2.518;2022-08-21T12:45:11;25.70;96.80
48860;DHT22;34679;51.436;-2.518;2022-08-21T12:48:31;26.00;96.80
48860;DHT22;34679;51.436;-2.518;2022-08-21T12:50:49;25.70;97.00
48860;DHT22;34679;51.436;-2.518;2022-08-21T12:55:54;25.40;97.20
48860;DHT22;34679;51.436;-2.518;2022-08-21T12:58:27;25.40;97.00
48860;DHT22;34679;51.436;-2.518;2022-08-21T13:03:24;25.10;97.80
48860;DHT22;34679;51.436;-2.518;2022-08-21T13:05:50;24.80;98.30
48860;DHT22;34679;51.436;-2.518;2022-08-21T13:08:19;24.80;98.10
48860;DHT22;34679;51.436;-2.518;2022-08-21T13:10:47;25.10;98.30
48860;DHT22;34679;51.436;-2.518;2022-08-21T13:13:23;25.30;98.00
48860;DHT22;34679;51.436;-2.518;2022-08-21T13:16:04;25.70;97.70
48860;DHT22;34679;51.436;-2.518;2022-08-21T13:18:32;25.80;97.50
48860;DHT22;34679;51.436;-2.518;2022-08-21T13:21:12;26.00;97.20
48860;DHT22;34679;51.436;-2.518;2022-08-21T13:23:38;25.90;97.00
48860;DHT22;34679;51.436;-2.518;2022-08-21T13:26:15;25.90;97.40
48860;DHT22;34679;51.436;-2.518;2022-08-21T13:28:41;26.20;97.70
48860;DHT22;34679;51.436;-2.518;2022-08-21T13:31:10;26.10;97.00
48860;DHT22;34679;51.436;-2.518;2022-08-21T13:33:37;25.10;97.30
48860;DHT22;34679;51.436;-2.518;2022-08-21T13:36:17;25.20;97.50
48860;DHT22;34679;51.436;-2.518;2022-08-21T13:38:45;25.40;97.30
48860;DHT22;34679;51.436;-2.518;2022-08-21T13:41:30;25.50;97.10
48860;DHT22;34679;51.436;-2.518;2022-08-21T13:44:22;25.70;97.60
48860;DHT22;34679;51.436;-2.518;2022-08-21T13:46:52;25.90;96.90
48860;DHT22;34679;51.436;-2.518;2022-08-21T13:49:23;25.60;96.30
48860;DHT22;34679;51.436;-2.518;2022-08-21T13:51:51;25.70;96.80
48860;DHT22;34679;51.436;-2.518;2022-08-21T13:54:27;25.80;96.10
48860;DHT22;34679;51.436;-2.518;2022-08-21T13:56:54;25.90;96.50
48860;DHT22;34679;51.436;-2.518;2022-08-21T13:59:29;26.20;96.20
48860;DHT22;34679;51.436;-2.518;2022-08-21T14:01:58;26.00;96.20
48860;DHT22;34679;51.436;-2.518;2022-08-21T14:05:14;25.90;96.30
48860;DHT22;34679;51.436;-2.518;2022-08-21T14:07:17;25.80;96.50
48860;DHT22;34679;51.436;-2.518;2022-08-21T14:09:45;25.60;96.60
48860;DHT22;34679;51.436;-2.518;2022-08-21T14:12:19;25.70;96.80
48860;DHT22;34679;51.436;-2.518;2022-08-21T14:14:50;25.40;96.70
48860;DHT22;34679;51.436;-2.518;2022-08-21T14:17:37;25.40;96.90
48860;DHT22;34679;51.436;-2.518;2022-08-21T14:20:08;25.40;96.60
48860;DHT22;34679;51.436;-2.518;2022-08-21T14:22:47;25.40;97.00
48860;DHT22;34679;51.436;-2.518;2022-08-21T14:27:51;25.40;96.90
48860;DHT22;34679;51.436;-2.518;2022-08-21T14:30:29;25.20;97.10
48860;DHT22;34679;51.436;-2.518;2022-08-21T14:32:57;25.20;97.30
48860;DHT22;34679;51.436;-2.518;2022-08-21T14:35:23;25.50;97.60
48860;DHT22;34679;51.436;-2.518;2022-08-21T14:37:50;25.90;96.80
48860;DHT22;34679;51.436;-2.518;2022-08-21T14:40:16;25.80;97.00
48860;DHT22;34679;51.436;-2.518;2022-08-21T14:42:43;25.80;96.90
48860;DHT22;34679;51.436;-2.518;2022-08-21T14:45:30;25.70;97.10
48860;DHT22;34679;51.436;-2.518;2022-08-21T14:47:58;25.50;96.80
48860;DHT22;34679;51.436;-2.518;2022-08-21T14:50:24;25.10;97.10
48860;DHT22;34679;51.436;-2.518;2022-08-21T14:52:50;24.80;97.40
48860;DHT22;34679;51.436;-2.518;2022-08-21T14:55:17;24.60;97.70
48860;DHT22;34679;51.436;-2.518;2022-08-21T14:57:48;24.40;97.80
48860;DHT22;34679;51.436;-2.518;2022-08-21T15:00:18;24.30;98.00
48860;DHT22;34679;51.436;-2.518;2022-08-21T15:02:45;24.30;98.10
48860;DHT22;34679;51.436;-2.518;2022-08-21T15:05:12;24.30;98.20
48860;DHT22;34679;51.436;-2.518;2022-08-21T15:07:38;24.40;98.90
48860;DHT22;34679;51.436;-2.518;2022-08-21T15:10:04;24.50;99.10
48860;DHT22;34679;51.436;-2.518;2022-08-21T15:12:30;24.60;98.80
48860;DHT22;34679;51.436;-2.518;2022-08-21T15:14:56;24.70;98.80
48860;DHT22;34679;51.436;-2.518;2022-08-21T15:17:22;24.60;98.90
48860;DHT22;34679;51.436;-2.518;2022-08-21T15:19:48;24.50;98.70
48860;DHT22;34679;51.436;-2.518;2022-08-21T15:22:13;24.50;98.30
48860;DHT22;34679;51.436;-2.518;2022-08-21T15:24:39;24.70;98.50
48860;DHT22;34679;51.436;-2.518;2022-08-21T15:27:08;24.60;98.70
48860;DHT22;34679;51.436;-2.518;2022-08-21T15:29:34;24.50;99.10
48860;DHT22;34679;51.436;-2.518;2022-08-21T15:32:17;24.70;99.00
48860;DHT22;34679;51.436;-2.518;2022-08-21T15:34:44;25.10;98.80
48860;DHT22;34679;51.436;-2.518;2022-08-21T15:37:10;25.00;98.80
48860;DHT22;34679;51.436;-2.518;2022-08-21T15:39:35;24.90;98.80
48860;DHT22;34679;51.436;-2.518;2022-08-21T15:42:02;25.00;98.90
48860;DHT22;34679;51.436;-2.518;2022-08-21T15:44:28;25.00;99.00
48860;DHT22;34679;51.436;-2.518;2022-08-21T15:46:55;25.10;99.10
48860;DHT22;34679;51.436;-2.518;2022-08-21T15:49:21;25.10;99.20
48860;DHT22;34679;51.436;-2.518;2022-08-21T15:51:47;25.10;99.10
48860;DHT22;34679;51.436;-2.518;2022-08-21T15:54:12;25.20;98.70
48860;DHT22;34679;51.436;-2.518;2022-08-21T15:56:40;25.10;99.00
48860;DHT22;34679;51.436;-2.518;2022-08-21T15:59:13;24.80;99.30
48860;DHT22;34679;51.436;-2.518;2022-08-21T16:01:40;24.50;99.60
48860;DHT22;34679;51.436;-2.518;2022-08-21T16:04:07;24.50;99.20
48860;DHT22;34679;51.436;-2.518;2022-08-21T16:06:33;24.60;99.30
48860;DHT22;34679;51.436;-2.518;2022-08-21T16:08:59;24.50;99.30
48860;DHT22;34679;51.436;-2.518;2022-08-21T16:11:26;24.50;99.30
48860;DHT22;34679;51.436;-2.518;2022-08-21T16:13:52;24.60;98.90
48860;DHT22;34679;51.436;-2.518;2022-08-21T16:16:20;24.60;99.00
48860;DHT22;34679;51.436;-2.518;2022-08-21T16:18:47;24.70;99.10
48860;DHT22;34679;51.436;-2.518;2022-08-21T16:21:14;24.60;99.40
48860;DHT22;34679;51.436;-2.518;2022-08-21T16:23:40;24.50;99.20
48860;DHT22;34679;51.436;-2.518;2022-08-21T16:26:07;24.20;99.60
48860;DHT22;34679;51.436;-2.518;2022-08-21T16:28:35;24.10;99.90
48860;DHT22;34679;51.436;-2.518;2022-08-21T16:31:02;23.90;99.90
48860;DHT22;34679;51.436;-2.518;2022-08-21T16:33:43;23.80;99.90
48860;DHT22;34679;51.436;-2.518;2022-08-21T16:36:10;23.80;99.90
48860;DHT22;34679;51.436;-2.518;2022-08-21T16:38:37;23.90;99.90
48860;DHT22;34679;51.436;-2.518;2022-08-21T16:41:05;23.90;99.90
48860;DHT22;34679;51.436;-2.518;2022-08-21T16:43:33;23.90;99.90
48860;DHT22;34679;51.436;-2.518;2022-08-21T16:45:59;23.90;99.90
48860;DHT22;34679;51.436;-2.518;2022-08-21T16:48:26;23.80;99.90
48860;DHT22;34679;51.436;-2.518;2022-08-21T16:50:54;23.80;99.90
48860;DHT22;34679;51.436;-2.518;2022-08-21T16:53:20;23.80;99.90
48860;DHT22;34679;51.436;-2.518;2022-08-21T16:55:46;23.90;99.90
48860;DHT22;34679;51.436;-2.518;2022-08-21T16:58:16;23.80;99.90